createdAt,value
2022-10-11T00:00:12.433Z,1.70
2022-10-11T00:02:39.601Z,2.03
2022-10-11T00:05:07.998Z,2.15
2022-10-11T00:07:37.365Z,2.60
2022-10-11T00:10:06.622Z,2.38
2022-10-11T00:12:33.842Z,2.40
2022-10-11T00:15:00.975Z,2.28
2022-10-11T00:17:28.091Z,2.30
2022-10-11T00:19:55.173Z,2.13
2022-10-11T00:22:22.207Z,2.28
2022-10-11T00:24:49.333Z,2.15
2022-10-11T00:27:16.497Z,2.28
2022-10-11T00:29:43.605Z,2.42
2022-10-11T00:32:11.044Z,2.63
2022-10-11T00:34:38.141Z,2.50
2022-10-11T00:37:05.204Z,2.17
2022-10-11T00:39:32.449Z,2.22
2022-10-11T00:41:59.693Z,3.30
2022-10-11T00:44:28.287Z,1.88
2022-10-11T00:47:00.296Z,2.08
2022-10-11T00:49:38.197Z,2.15
2022-10-11T00:52:17.033Z,2.42
2022-10-11T00:54:46.359Z,2.70
2022-10-11T00:57:21.588Z,2.20
2022-10-11T00:59:52.764Z,2.35
2022-10-11T01:02:20.991Z,2.03
2022-10-11T01:04:48.185Z,2.22
2022-10-11T01:07:17.177Z,2.80
2022-10-11T01:09:44.378Z,2.42
2022-10-11T01:12:21.523Z,2.05
2022-10-11T01:15:17.207Z,3.35
2022-10-11T01:18:06.997Z,2.40
2022-10-11T01:20:52.108Z,3.22
2022-10-11T01:23:38.010Z,2.30
2022-10-11T01:26:23.988Z,2.65
2022-10-11T01:29:30.445Z,2.60
2022-10-11T01:32:12.601Z,2.17
2022-10-11T01:34:56.666Z,3.10
2022-10-11T01:37:35.463Z,2.22
2022-10-11T01:40:17.591Z,2.97
2022-10-11T01:42:45.949Z,2.80
2022-10-11T01:45:16.283Z,2.15
2022-10-11T01:47:45.750Z,2.28
2022-10-11T01:50:40.088Z,2.40
2022-10-11T01:53:28.071Z,2.80
2022-10-11T01:56:04.505Z,1.88
2022-10-11T01:58:50.459Z,2.58
2022-10-11T02:01:42.549Z,2.45
2022-10-11T02:04:44.226Z,1.95
2022-10-11T02:07:32.948Z,2.33
2022-10-11T02:10:26.478Z,2.00
2022-10-11T02:13:01.230Z,2.65
2022-10-11T02:15:31.462Z,2.53
2022-10-11T02:18:02.046Z,2.22
2022-10-11T02:20:32.924Z,1.95
2022-10-11T02:23:07.568Z,2.95
2022-10-11T02:25:36.454Z,2.42
2022-10-11T02:28:10.892Z,2.40
2022-10-11T02:30:41.830Z,2.58
2022-10-11T02:33:13.218Z,2.92
2022-10-11T02:35:44.368Z,2.60
2022-10-11T02:38:25.067Z,2.40
2022-10-11T02:41:02.004Z,2.97
2022-10-11T02:43:39.412Z,3.28
2022-10-11T02:46:08.575Z,1.88
2022-10-11T02:48:36.429Z,3.15
2022-10-11T02:51:04.854Z,2.03
2022-10-11T02:53:32.092Z,2.20
2022-10-11T02:55:59.232Z,2.30
2022-10-11T02:58:26.349Z,2.70
2022-10-11T03:00:53.462Z,2.90
2022-10-11T03:03:20.651Z,2.33
2022-10-11T03:05:47.776Z,2.85
2022-10-11T03:08:16.431Z,2.85
2022-10-11T03:10:44.100Z,2.50
2022-10-11T03:13:14.836Z,2.38
2022-10-11T03:15:49.342Z,2.43
2022-10-11T03:18:16.546Z,2.67
2022-10-11T03:20:43.858Z,2.47
2022-10-11T03:23:11.879Z,2.75
2022-10-11T03:25:39.654Z,2.92
2022-10-11T03:28:06.863Z,2.75
2022-10-11T03:30:34.108Z,3.72
2022-10-11T03:33:01.197Z,3.65
2022-10-11T03:35:28.356Z,3.55
2022-10-11T03:37:55.496Z,3.60
2022-10-11T03:40:22.564Z,3.17
2022-10-11T03:42:49.564Z,3.80
2022-10-11T03:45:16.802Z,2.92
2022-10-11T03:47:46.916Z,3.20
2022-10-11T03:50:14.071Z,2.70
2022-10-11T03:52:41.281Z,3.58
2022-10-11T03:55:08.866Z,2.95
2022-10-11T03:57:35.970Z,2.80
2022-10-11T04:00:05.084Z,2.35
2022-10-11T04:02:34.694Z,2.70
2022-10-11T04:05:06.489Z,2.20
2022-10-11T04:07:34.011Z,2.33
2022-10-11T04:10:01.069Z,2.90
2022-10-11T04:12:28.095Z,2.20
2022-10-11T04:14:55.128Z,2.88
2022-10-11T04:17:22.175Z,2.58
2022-10-11T04:19:49.546Z,2.20
2022-10-11T04:22:16.898Z,2.90
2022-10-11T04:24:44.011Z,2.80
2022-10-11T04:27:11.098Z,3.00
2022-10-11T04:29:38.277Z,2.58
2022-10-11T04:32:05.560Z,2.92
2022-10-11T04:34:32.623Z,2.35
2022-10-11T04:36:59.730Z,2.53
2022-10-11T04:39:26.823Z,2.67
2022-10-11T04:41:53.861Z,3.10
2022-10-11T04:44:20.889Z,2.72
2022-10-11T04:46:47.990Z,2.53
2022-10-11T04:49:15.032Z,2.30
2022-10-11T04:51:42.120Z,2.70
2022-10-11T04:54:09.215Z,2.03
2022-10-11T04:56:36.320Z,2.58
2022-10-11T04:59:03.422Z,2.38
2022-10-11T05:01:32.369Z,3.25
2022-10-11T05:03:59.471Z,2.92
2022-10-11T05:06:26.656Z,2.72
2022-10-11T05:08:53.772Z,2.40
2022-10-11T05:11:20.893Z,2.63
2022-10-11T05:13:48.111Z,3.10
2022-10-11T05:16:16.486Z,3.13
2022-10-11T05:18:44.173Z,2.58
2022-10-11T05:21:22.976Z,3.67
2022-10-11T05:23:51.459Z,2.72
2022-10-11T05:26:20.221Z,3.13
2022-10-11T05:28:48.151Z,2.92
2022-10-11T05:31:16.138Z,2.65
2022-10-11T05:33:43.382Z,2.97
2022-10-11T05:36:11.371Z,3.22
2022-10-11T05:38:39.312Z,2.65
2022-10-11T05:41:09.072Z,3.20
2022-10-11T05:43:36.205Z,2.65
2022-10-11T05:46:05.849Z,2.88
2022-10-11T05:48:33.347Z,2.70
2022-10-11T05:51:02.994Z,2.83
2022-10-11T05:53:32.693Z,2.55
2022-10-11T05:55:59.813Z,2.80
2022-10-11T05:58:27.542Z,2.55
2022-10-11T06:00:56.753Z,2.97
2022-10-11T06:03:24.322Z,2.60
2022-10-11T06:05:56.490Z,2.90
2022-10-11T06:08:24.282Z,2.80
2022-10-11T06:10:53.687Z,3.17
2022-10-11T06:13:20.810Z,2.97
2022-10-11T06:15:50.500Z,2.45
2022-10-11T06:18:17.586Z,2.35
2022-10-11T06:20:44.622Z,2.60
2022-10-11T06:23:12.135Z,2.35
2022-10-11T06:25:39.192Z,2.65
2022-10-11T06:28:06.302Z,2.78
2022-10-11T06:30:33.401Z,3.00
2022-10-11T06:33:04.584Z,3.25
2022-10-11T06:35:32.124Z,2.65
2022-10-11T06:37:59.240Z,2.83
2022-10-11T06:40:26.533Z,3.08
2022-10-11T06:42:53.786Z,2.95
2022-10-11T06:45:21.355Z,3.38
2022-10-11T06:47:48.456Z,3.92
2022-10-11T06:50:15.759Z,2.88
2022-10-11T06:52:42.848Z,2.50
2022-10-11T06:55:09.994Z,2.90
2022-10-11T06:57:39.192Z,3.25
2022-10-11T07:00:11.687Z,2.97
2022-10-11T07:02:39.755Z,2.53
2022-10-11T07:05:07.592Z,2.70
2022-10-11T07:07:34.734Z,2.58
2022-10-11T07:10:01.786Z,2.78
2022-10-11T07:12:28.898Z,2.40
2022-10-11T07:14:56.099Z,2.80
2022-10-11T07:17:23.217Z,3.03
2022-10-11T07:19:50.311Z,3.50
2022-10-11T07:22:17.461Z,3.33
2022-10-11T07:24:44.591Z,3.13
2022-10-11T07:27:11.785Z,3.80
2022-10-11T07:29:38.803Z,3.72
2022-10-11T07:32:06.163Z,3.25
2022-10-11T07:34:33.241Z,3.55
2022-10-11T07:37:00.294Z,3.72
2022-10-11T07:39:27.411Z,2.85
2022-10-11T07:41:54.566Z,3.20
2022-10-11T07:44:21.846Z,3.08
2022-10-11T07:46:48.901Z,2.83
2022-10-11T07:49:15.972Z,3.60
2022-10-11T07:51:43.120Z,3.38
2022-10-11T07:54:10.287Z,3.55
2022-10-11T07:56:38.189Z,2.80
2022-10-11T07:59:05.443Z,3.13
2022-10-11T08:01:33.170Z,3.00
2022-10-11T08:04:00.538Z,2.92
2022-10-11T08:06:31.727Z,3.35
2022-10-11T08:09:00.627Z,3.22
2022-10-11T08:11:34.189Z,3.00
2022-10-11T08:14:02.026Z,3.47
2022-10-11T08:16:29.165Z,2.83
2022-10-11T08:18:57.061Z,3.03
2022-10-11T08:21:26.776Z,2.55
2022-10-11T08:23:54.031Z,3.70
2022-10-11T08:26:21.610Z,2.67
2022-10-11T08:28:49.079Z,2.60
2022-10-11T08:31:16.694Z,2.42
2022-10-11T08:33:44.234Z,2.90
2022-10-11T08:36:12.244Z,2.90
2022-10-11T08:38:39.941Z,2.85
2022-10-11T08:41:26.011Z,2.75
2022-10-11T08:44:06.602Z,2.58
2022-10-11T08:46:35.293Z,2.45
2022-10-11T08:49:02.831Z,2.70
2022-10-11T08:51:43.571Z,2.90
2022-10-11T08:54:25.877Z,2.30
2022-10-11T08:56:53.022Z,2.60
2022-10-11T08:59:30.608Z,2.35
2022-10-11T09:02:13.785Z,2.35
2022-10-11T09:04:41.047Z,2.63
2022-10-11T09:07:32.064Z,2.22
2022-10-11T09:10:02.047Z,2.72
2022-10-11T09:12:51.041Z,2.25
2022-10-11T09:15:27.394Z,2.30
2022-10-11T09:18:31.129Z,2.60
2022-10-11T09:21:13.528Z,2.70
2022-10-11T09:24:03.686Z,2.35
2022-10-11T09:27:01.394Z,2.45
2022-10-11T09:29:45.879Z,2.90
2022-10-11T09:34:42.654Z,2.70
2022-10-11T09:37:28.080Z,1.80
2022-10-11T09:40:01.077Z,2.40
2022-10-11T09:42:28.182Z,2.53
2022-10-11T09:44:57.290Z,2.72
2022-10-11T09:47:27.402Z,3.15
2022-10-11T09:50:00.318Z,2.72
2022-10-11T09:52:27.374Z,2.83
2022-10-11T09:54:59.034Z,2.60
2022-10-11T09:57:37.252Z,2.47
2022-10-11T10:00:13.585Z,2.97
2022-10-11T10:02:52.546Z,3.42
2022-10-11T10:05:23.838Z,2.72
2022-10-11T10:08:09.432Z,3.10
2022-10-11T10:10:48.524Z,2.47
2022-10-11T10:13:43.892Z,3.70
2022-10-11T10:16:23.136Z,2.40
2022-10-11T10:19:00.486Z,2.90
2022-10-11T10:21:29.626Z,3.00
2022-10-11T10:24:00.147Z,3.13
2022-10-11T10:26:27.525Z,3.17
2022-10-11T10:28:54.808Z,2.58
2022-10-11T10:31:30.644Z,3.47
2022-10-11T10:33:57.883Z,2.80
2022-10-11T10:36:35.600Z,3.35
2022-10-11T10:39:18.349Z,2.22
2022-10-11T10:41:45.438Z,2.45
2022-10-11T10:44:12.930Z,3.10
2022-10-11T10:46:56.293Z,3.03
2022-10-11T10:49:53.084Z,3.85
2022-10-11T10:52:20.974Z,3.13
2022-10-11T10:55:26.565Z,2.65
2022-10-11T10:58:12.882Z,2.80
2022-10-11T11:00:56.535Z,3.10
2022-10-11T11:03:32.194Z,2.72
2022-10-11T11:06:07.132Z,3.55
2022-10-11T11:09:12.458Z,2.72
2022-10-11T11:14:45.365Z,2.60
2022-10-11T11:17:19.371Z,2.40
2022-10-11T11:22:30.395Z,2.40
2022-10-11T11:25:27.530Z,2.60
2022-10-11T11:28:18.761Z,2.63
2022-10-11T11:31:07.887Z,2.17
2022-10-11T11:33:55.309Z,2.92
2022-10-11T11:36:32.687Z,3.30
2022-10-11T11:39:04.961Z,2.72
2022-10-11T11:41:48.080Z,2.42
2022-10-11T11:44:56.897Z,2.75
2022-10-11T11:47:35.409Z,2.80
2022-10-11T11:50:28.660Z,2.50
2022-10-11T11:53:04.723Z,2.63
2022-10-11T11:55:52.413Z,2.03
2022-10-11T11:58:22.525Z,2.47
2022-10-11T12:01:14.553Z,2.72
2022-10-11T12:03:47.675Z,2.58
2022-10-11T12:06:14.732Z,3.05
2022-10-11T12:08:48.474Z,2.20
2022-10-11T12:11:25.952Z,2.47
2022-10-11T12:13:54.640Z,2.38
2022-10-11T12:16:22.353Z,2.20
2022-10-11T12:18:50.986Z,2.22
2022-10-11T12:21:43.902Z,3.25
2022-10-11T12:24:20.026Z,2.67
2022-10-11T12:26:48.823Z,3.08
2022-10-11T12:29:18.679Z,2.95
2022-10-11T12:31:48.572Z,2.90
2022-10-11T12:34:20.765Z,3.17
2022-10-11T12:36:49.694Z,2.80
2022-10-11T12:39:19.872Z,3.10
2022-10-11T12:41:50.263Z,3.20
2022-10-11T12:44:29.208Z,3.85
2022-10-11T12:46:57.726Z,3.78
2022-10-11T12:49:33.908Z,2.90
2022-10-11T12:52:22.468Z,2.55
2022-10-11T12:55:27.314Z,2.40
2022-10-11T12:58:44.024Z,2.40
2022-10-11T13:01:17.453Z,2.72
2022-10-11T13:03:57.114Z,2.55
2022-10-11T13:06:28.881Z,2.13
2022-10-11T13:09:10.930Z,1.90
2022-10-11T13:11:54.175Z,2.13
2022-10-11T13:14:23.918Z,1.95
2022-10-11T13:16:57.630Z,2.20
2022-10-11T13:19:24.906Z,2.33
2022-10-11T13:21:56.341Z,2.22
2022-10-11T13:24:25.471Z,1.70
2022-10-11T13:26:55.917Z,2.38
2022-10-11T13:29:36.007Z,2.42
2022-10-11T13:32:13.282Z,2.53
2022-10-11T13:34:41.721Z,2.03
2022-10-11T13:37:18.680Z,2.15
2022-10-11T13:39:47.253Z,2.95
2022-10-11T13:42:16.871Z,1.80
2022-10-11T13:44:45.900Z,1.77
2022-10-11T13:47:15.067Z,1.77
2022-10-11T13:49:48.107Z,2.40
2022-10-11T13:52:17.928Z,2.30
2022-10-11T13:55:00.791Z,2.28
2022-10-11T13:57:40.046Z,2.10
2022-10-11T14:00:23.384Z,2.13
2022-10-11T14:03:07.629Z,2.38
2022-10-11T14:05:39.793Z,2.13
2022-10-11T14:08:34.518Z,2.08
2022-10-11T14:13:43.294Z,2.13
2022-10-11T14:16:27.807Z,2.75
2022-10-11T14:18:57.943Z,2.03
2022-10-11T14:21:30.522Z,1.85
2022-10-11T14:24:07.060Z,1.67
2022-10-11T14:26:37.354Z,2.28
2022-10-11T14:29:28.856Z,2.05
2022-10-11T14:32:01.593Z,1.92
2022-10-11T14:34:29.300Z,1.98
2022-10-11T14:36:56.421Z,2.22
2022-10-11T14:39:25.395Z,2.13
2022-10-11T14:41:52.832Z,1.80
2022-10-11T14:44:21.144Z,1.90
2022-10-11T14:46:50.045Z,2.13
2022-10-11T14:49:20.206Z,2.40
2022-10-11T14:51:50.127Z,2.17
2022-10-11T14:54:19.053Z,2.53
2022-10-11T14:56:46.415Z,3.13
2022-10-11T14:59:19.024Z,2.80
2022-10-11T15:01:51.794Z,2.50
2022-10-11T15:04:20.707Z,2.42
2022-10-11T15:06:48.057Z,2.60
2022-10-11T15:09:16.973Z,2.03
2022-10-11T15:11:43.987Z,2.50
2022-10-11T15:14:10.988Z,2.22
2022-10-11T15:16:39.948Z,2.50
2022-10-11T15:19:11.081Z,2.28
2022-10-11T15:21:38.139Z,4.75
2022-10-11T15:24:05.402Z,2.92
2022-10-11T15:26:33.886Z,2.55
2022-10-11T15:29:00.991Z,2.47
2022-10-11T15:31:28.143Z,2.20
2022-10-11T15:33:59.411Z,2.03
2022-10-11T15:36:26.792Z,2.38
2022-10-11T15:38:53.820Z,2.20
2022-10-11T15:41:21.177Z,2.58
2022-10-11T15:43:49.278Z,2.10
2022-10-11T15:46:22.263Z,2.40
2022-10-11T15:48:51.630Z,2.03
2022-10-11T15:51:18.847Z,2.60
2022-10-11T15:53:46.418Z,2.25
2022-10-11T15:56:17.119Z,1.80
2022-10-11T15:58:44.721Z,2.90
2022-10-11T16:01:17.936Z,2.67
2022-10-11T16:03:47.303Z,2.22
2022-10-11T16:06:14.664Z,2.05
2022-10-11T16:08:41.721Z,1.67
2022-10-11T16:11:12.025Z,1.83
2022-10-11T16:13:39.444Z,2.08
2022-10-11T16:16:08.722Z,2.00
2022-10-11T16:18:36.346Z,2.15
2022-10-11T16:21:14.116Z,1.83
2022-10-11T16:23:41.808Z,2.20
2022-10-11T16:26:13.348Z,1.95
2022-10-11T16:28:42.038Z,1.75
2022-10-11T16:31:20.830Z,2.00
2022-10-11T16:33:48.625Z,1.90
2022-10-11T16:36:40.250Z,2.95
2022-10-11T16:39:18.357Z,2.85
2022-10-11T16:41:46.493Z,2.47
2022-10-11T16:44:15.766Z,2.53
2022-10-11T16:46:47.646Z,3.05
2022-10-11T16:49:16.654Z,2.40
2022-10-11T16:51:43.912Z,2.90
2022-10-11T16:54:11.068Z,3.22
2022-10-11T16:56:40.017Z,3.95
2022-10-11T16:59:08.051Z,4.00
2022-10-11T17:01:35.125Z,3.40
2022-10-11T17:04:02.188Z,3.25
2022-10-11T17:06:29.661Z,3.75
2022-10-11T17:08:56.899Z,3.58
2022-10-11T17:11:24.354Z,3.35
2022-10-11T17:13:53.434Z,3.10
2022-10-11T17:16:21.939Z,2.75
2022-10-11T17:18:49.486Z,3.08
2022-10-11T17:21:18.710Z,3.00
2022-10-11T17:23:46.904Z,3.20
2022-10-11T17:26:17.735Z,3.13
2022-10-11T17:28:45.378Z,3.00
2022-10-11T17:31:13.064Z,3.90
2022-10-11T17:33:42.822Z,4.75
2022-10-11T17:36:22.417Z,4.30
2022-10-11T17:38:50.904Z,3.25
2022-10-11T17:41:18.238Z,2.63
2022-10-11T17:43:45.461Z,2.60
2022-10-11T17:46:14.573Z,2.47
2022-10-11T17:48:41.781Z,2.17
2022-10-11T17:51:11.299Z,2.45
2022-10-11T17:53:38.736Z,1.92
2022-10-11T17:56:12.750Z,2.53
2022-10-11T17:58:40.124Z,3.00
2022-10-11T18:01:14.778Z,2.17
2022-10-11T18:03:43.020Z,3.30
2022-10-11T18:06:12.864Z,2.35
2022-10-11T18:08:40.899Z,3.05
2022-10-11T18:11:14.475Z,2.90
2022-10-11T18:13:45.841Z,2.95
2022-10-11T18:16:14.619Z,2.55
2022-10-11T18:18:42.383Z,2.63
2022-10-11T18:21:10.664Z,2.97
2022-10-11T18:23:38.307Z,2.83
2022-10-11T18:26:10.924Z,2.85
2022-10-11T18:28:38.258Z,2.40
2022-10-11T18:31:13.443Z,3.30
2022-10-11T18:33:42.050Z,2.80
2022-10-11T18:36:10.450Z,2.70
2022-10-11T18:38:38.069Z,2.60
2022-10-11T18:41:10.279Z,2.88
2022-10-11T18:43:38.480Z,2.80
2022-10-11T18:46:11.497Z,2.50
2022-10-11T18:48:45.884Z,2.97
2022-10-11T18:51:27.803Z,2.78
2022-10-11T18:53:55.878Z,2.63
2022-10-11T18:56:26.765Z,3.05
2022-10-11T18:58:57.502Z,2.53
2022-10-11T19:01:30.772Z,3.72
2022-10-11T19:04:02.107Z,2.53
2022-10-11T19:06:35.340Z,2.67
2022-10-11T19:09:10.385Z,2.70
2022-10-11T19:11:38.190Z,3.03
2022-10-11T19:14:08.308Z,2.50
2022-10-11T19:16:40.359Z,2.28
2022-10-11T19:19:09.543Z,2.75
2022-10-11T19:21:37.558Z,2.38
2022-10-11T19:24:05.258Z,2.58
2022-10-11T19:26:35.323Z,3.13
2022-10-11T19:29:08.697Z,2.90
2022-10-11T19:31:40.775Z,2.50
2022-10-11T19:34:08.131Z,2.95
2022-10-11T19:36:36.891Z,2.30
2022-10-11T19:39:05.778Z,2.70
2022-10-11T19:41:33.389Z,3.28
2022-10-11T19:44:00.641Z,3.40
2022-10-11T19:46:49.980Z,2.58
2022-10-11T19:49:17.507Z,3.10
2022-10-11T19:51:44.594Z,5.95
2022-10-11T19:54:13.935Z,3.75
2022-10-11T19:56:42.476Z,2.75
2022-10-11T19:59:11.021Z,4.57
2022-10-11T20:01:39.689Z,7.80
2022-10-11T20:04:09.317Z,13.85
2022-10-11T20:06:40.209Z,8.40
2022-10-11T20:09:29.621Z,6.70
2022-10-11T20:11:57.040Z,4.60
2022-10-11T20:14:24.990Z,2.90
2022-10-11T20:16:52.355Z,3.60
2022-10-11T20:19:20.097Z,2.58
2022-10-11T20:21:47.666Z,2.95
2022-10-11T20:24:14.732Z,2.80
2022-10-11T20:26:41.760Z,3.00
2022-10-11T20:29:08.873Z,2.83
2022-10-11T20:31:41.781Z,3.47
2022-10-11T20:34:09.269Z,3.85
2022-10-11T20:36:36.957Z,2.97
2022-10-11T20:39:05.603Z,3.08
2022-10-11T20:41:37.088Z,2.80
2022-10-11T20:44:05.126Z,3.53
2022-10-11T20:46:34.862Z,3.25
2022-10-11T20:49:04.990Z,2.88
2022-10-11T20:51:34.550Z,3.08
2022-10-11T20:54:02.317Z,3.30
2022-10-11T20:56:29.983Z,3.00
2022-10-11T20:58:58.173Z,2.90
2022-10-11T21:01:31.736Z,3.05
2022-10-11T21:04:01.245Z,3.33
2022-10-11T21:06:29.571Z,3.53
2022-10-11T21:08:58.960Z,3.22
2022-10-11T21:11:31.841Z,3.35
2022-10-11T21:14:04.893Z,3.53
2022-10-11T21:16:33.731Z,3.50
2022-10-11T21:19:02.153Z,2.95
2022-10-11T21:21:29.920Z,3.28
2022-10-11T21:23:59.709Z,3.38
2022-10-11T21:26:28.022Z,3.72
2022-10-11T21:28:55.195Z,4.18
2022-10-11T21:31:23.241Z,4.13
2022-10-11T21:33:50.662Z,3.58
2022-10-11T21:36:22.163Z,3.30
2022-10-11T21:38:51.717Z,3.28
2022-10-11T21:41:21.503Z,3.45
2022-10-11T21:43:49.270Z,3.30
2022-10-11T21:46:20.513Z,3.00
2022-10-11T21:48:48.095Z,2.83
2022-10-11T21:51:27.722Z,3.10
2022-10-11T21:53:56.160Z,2.78
2022-10-11T21:56:23.643Z,3.00
2022-10-11T21:58:51.222Z,3.15
2022-10-11T22:01:22.857Z,3.55
2022-10-11T22:03:50.393Z,3.00
2022-10-11T22:06:17.459Z,3.10
2022-10-11T22:08:44.672Z,3.08
2022-10-11T22:11:12.420Z,3.40
2022-10-11T22:13:39.697Z,3.50
2022-10-11T22:16:13.142Z,4.10
2022-10-11T22:18:41.334Z,4.40
2022-10-11T22:21:13.451Z,4.00
2022-10-11T22:23:42.353Z,3.70
2022-10-11T22:26:13.193Z,3.05
2022-10-11T22:28:40.968Z,3.38
2022-10-11T22:31:09.950Z,2.20
2022-10-11T22:33:37.578Z,2.50
2022-10-11T22:36:10.150Z,2.53
2022-10-11T22:38:40.632Z,3.15
2022-10-11T22:41:08.216Z,2.28
2022-10-11T22:43:35.461Z,2.42
2022-10-11T22:46:02.862Z,2.83
2022-10-11T22:48:30.043Z,2.75
2022-10-11T22:50:57.215Z,2.72
2022-10-11T22:53:24.296Z,3.28
2022-10-11T22:55:51.447Z,3.30
2022-10-11T22:58:18.465Z,3.30
2022-10-11T23:00:45.562Z,3.80
2022-10-11T23:03:13.938Z,5.95
2022-10-11T23:05:40.990Z,4.30
2022-10-11T23:08:09.520Z,3.75
2022-10-11T23:10:40.394Z,3.65
2022-10-11T23:13:07.589Z,3.65
2022-10-11T23:15:34.636Z,4.50
2022-10-11T23:18:01.673Z,4.57
2022-10-11T23:20:28.730Z,4.10
2022-10-11T23:22:55.762Z,4.32
2022-10-11T23:25:22.783Z,4.18
2022-10-11T23:27:49.793Z,3.55
2022-10-11T23:30:16.857Z,3.90
2022-10-11T23:32:43.942Z,4.45
2022-10-11T23:35:11.087Z,4.53
2022-10-11T23:37:38.389Z,4.30
2022-10-11T23:40:06.375Z,3.97
2022-10-11T23:42:33.423Z,4.20
2022-10-11T23:45:00.490Z,4.35
2022-10-11T23:47:27.605Z,4.40
2022-10-11T23:49:54.665Z,4.10
2022-10-11T23:52:21.790Z,4.70
2022-10-11T23:54:51.115Z,4.00
2022-10-11T23:57:18.176Z,4.15
2022-10-11T23:59:45.266Z,4.22
